Time;durP1;ratioP1;P1;durP2;ratioP2;P2;SDS_P1;SDS_P2;PMS_P1;PMS_P2;Temp;Humidity;BMP_temperature;BMP_pressure;BME280_temperature;BME280_humidity;BME280_pressure;Samples;Min_cycle;Max_cycle;Signal;HPM_P1;HPM_P2
2022/04/23 00:01:42;;;;;;;52.45;31.90;;;7.70;99.90;;;;;;4995063;28;20030;-85
2022/04/23 00:04:12;;;;;;;49.08;30.85;;;7.80;99.90;;;;;;4995041;28;20505;-85
2022/04/23 00:06:39;;;;;;;48.55;31.40;;;7.90;99.90;;;;;;4995456;28;20026;-85
2022/04/23 00:09:06;;;;;;;49.10;30.27;;;7.90;99.90;;;;;;4994966;28;20137;-84
2022/04/23 00:11:35;;;;;;;53.92;31.17;;;7.90;99.90;;;;;;5011326;28;20053;-85
2022/04/23 00:14:01;;;;;;;51.58;31.15;;;7.90;99.90;;;;;;5011519;28;20029;-84
2022/04/23 00:16:27;;;;;;;48.88;30.25;;;7.90;99.90;;;;;;5011817;28;20058;-85
2022/04/23 00:18:53;;;;;;;48.00;30.13;;;7.90;99.90;;;;;;4994534;28;20622;-85
2022/04/23 00:21:20;;;;;;;42.55;29.13;;;8.00;99.90;;;;;;5027371;28;20512;-85
2022/04/23 00:23:47;;;;;;;48.15;30.08;;;8.00;99.90;;;;;;5011105;28;20026;-84
2022/04/23 00:26:13;;;;;;;49.88;31.92;;;8.00;99.90;;;;;;4994649;28;20367;-85
2022/04/23 00:28:39;;;;;;;47.17;30.52;;;7.90;99.90;;;;;;4994538;28;20029;-84
2022/04/23 00:31:05;;;;;;;48.47;31.40;;;7.90;99.90;;;;;;5012184;28;20113;-84
2022/04/23 00:33:38;;;;;;;49.38;30.55;;;7.80;99.90;;;;;;5027737;28;20563;-85
2022/04/23 00:36:10;;;;;;;49.10;30.77;;;7.70;99.90;;;;;;5010864;28;20029;-85
2022/04/23 00:38:42;;;;;;;50.83;30.92;;;7.70;99.90;;;;;;4994972;28;20083;-85
2022/04/23 00:41:43;;;;;;;50.92;31.88;;;7.60;99.90;;;;;;4994159;28;20033;-85
2022/04/23 00:43:54;;;;;;;50.08;31.35;;;7.60;99.90;;;;;;5011970;28;20042;-85
2022/04/23 00:46:29;;;;;;;56.78;33.78;;;7.50;99.90;;;;;;5011020;28;20033;-85
2022/04/23 00:48:55;;;;;;;49.90;32.15;;;7.40;99.90;;;;;;5011841;28;20121;-85
2022/04/23 00:51:21;;;;;;;56.92;32.08;;;7.40;99.90;;;;;;5030925;28;20486;-84
2022/04/23 00:53:48;;;;;;;51.83;33.45;;;7.30;99.90;;;;;;5014224;28;20045;-85
2022/04/23 00:56:14;;;;;;;50.30;31.80;;;7.10;99.90;;;;;;5014176;28;20030;-85
2022/04/23 00:58:40;;;;;;;54.03;33.88;;;7.20;99.90;;;;;;4997854;28;20045;-85
2022/04/23 01:01:06;;;;;;;56.55;35.20;;;7.00;99.90;;;;;;4997524;28;20038;-85
2022/04/23 01:03:32;;;;;;;54.65;34.53;;;7.00;99.90;;;;;;5014133;28;20508;-85
2022/04/23 01:05:58;;;;;;;54.67;34.65;;;6.80;99.90;;;;;;4998294;28;20021;-85
2022/04/23 01:08:26;;;;;;;53.72;34.65;;;6.80;99.90;;;;;;5013994;28;20370;-85
2022/04/23 01:10:52;;;;;;;57.17;35.22;;;6.80;99.90;;;;;;4997765;28;20033;-84
2022/04/23 01:13:18;;;;;;;59.45;36.75;;;6.90;99.90;;;;;;4997708;28;20493;-85
2022/04/23 01:16:00;;;;;;;55.35;35.33;;;6.80;99.90;;;;;;4997149;28;20034;-85
2022/04/23 01:18:26;;;;;;;57.85;35.95;;;6.90;99.90;;;;;;5013156;28;20042;-85
2022/04/23 01:20:56;;;;;;;57.35;36.40;;;6.90;99.90;;;;;;5013580;28;20132;-85
2022/04/23 01:23:22;;;;;;;63.35;37.80;;;6.80;99.90;;;;;;5013872;28;20092;-85
2022/04/23 01:25:52;;;;;;;55.55;35.90;;;6.80;99.90;;;;;;5013788;28;20025;-85
2022/04/23 01:28:23;;;;;;;59.70;37.00;;;6.80;99.90;;;;;;5013615;28;20070;-84
2022/04/23 01:30:58;;;;;;;60.72;35.72;;;6.80;99.90;;;;;;4997351;28;20038;-85
2022/04/23 01:33:24;;;;;;;62.78;37.05;;;6.70;99.90;;;;;;4997569;28;20038;-85
2022/04/23 01:35:50;;;;;;;60.97;35.50;;;6.70;99.90;;;;;;5030613;28;20481;-85
2022/04/23 01:38:16;;;;;;;56.72;34.80;;;6.70;99.90;;;;;;5014901;28;20122;-84
2022/04/23 01:40:42;;;;;;;59.08;35.45;;;6.70;99.90;;;;;;5030220;28;20081;-84
2022/04/23 01:43:10;;;;;;;59.88;37.72;;;6.60;99.90;;;;;;4997102;28;20026;-85
2022/04/23 01:45:37;;;;;;;60.67;36.92;;;6.60;99.90;;;;;;4997462;28;20109;-85
2022/04/23 01:48:04;;;;;;;58.53;35.65;;;6.50;99.90;;;;;;5013237;28;20033;-85
2022/04/23 01:50:29;;;;;;;60.28;37.65;;;6.50;99.90;;;;;;5029947;28;20030;-85
2022/04/23 01:52:55;;;;;;;59.88;36.15;;;6.50;99.90;;;;;;5013854;28;20048;-85
2022/04/23 01:55:21;;;;;;;62.42;36.13;;;6.50;99.90;;;;;;5030250;28;20041;-84
2022/04/23 01:57:47;;;;;;;58.53;36.70;;;6.60;99.90;;;;;;5013724;28;20076;-85
2022/04/23 02:00:14;;;;;;;59.70;37.10;;;6.60;99.90;;;;;;4995533;28;20492;-84
2022/04/23 02:02:43;;;;;;;61.95;38.03;;;6.70;99.90;;;;;;5012693;28;20591;-85
2022/04/23 02:05:10;;;;;;;58.85;36.17;;;6.80;99.90;;;;;;4997101;28;20087;-85
2022/04/23 02:07:40;;;;;;;58.70;37.33;;;6.80;99.90;;;;;;5012910;28;20026;-85
2022/04/23 02:10:08;;;;;;;59.90;37.17;;;6.80;99.90;;;;;;4996783;28;20034;-85
2022/04/23 02:12:34;;;;;;;57.67;38.17;;;6.80;99.90;;;;;;5013252;28;20026;-85
2022/04/23 02:15:01;;;;;;;56.70;35.95;;;6.80;99.90;;;;;;5013254;28;20038;-85
2022/04/23 02:17:34;;;;;;;58.90;36.83;;;6.70;99.90;;;;;;5021459;28;20026;-85
2022/04/23 02:20:04;;;;;;;64.13;38.00;;;6.70;99.90;;;;;;4995387;28;20064;-85
2022/04/23 02:22:30;;;;;;;55.45;35.55;;;6.70;99.90;;;;;;5012612;28;20048;-85
2022/04/23 02:24:56;;;;;;;61.25;37.55;;;6.60;99.90;;;;;;5012766;28;20022;-85
2022/04/23 02:27:23;;;;;;;60.17;37.97;;;6.60;99.90;;;;;;4996416;28;20033;-85
2022/04/23 02:29:51;;;;;;;60.28;37.65;;;6.60;99.90;;;;;;4996377;28;20382;-85
2022/04/23 02:32:17;;;;;;;61.70;36.85;;;6.50;99.90;;;;;;5029402;28;20038;-84
2022/04/23 02:34:43;;;;;;;60.05;37.30;;;6.50;99.90;;;;;;5029586;28;20044;-85
2022/04/23 02:37:09;;;;;;;58.22;36.67;;;6.50;99.90;;;;;;5013000;28;20030;-85
2022/04/23 02:39:35;;;;;;;56.33;36.45;;;6.50;99.90;;;;;;5012392;28;20136;-85
2022/04/23 02:42:01;;;;;;;62.28;39.38;;;6.30;99.90;;;;;;5012726;28;20393;-85
2022/04/23 02:44:28;;;;;;;63.38;39.40;;;6.30;99.90;;;;;;5012602;28;20030;-84
2022/04/23 02:46:54;;;;;;;59.20;37.40;;;6.30;99.90;;;;;;4996284;28;20068;-84
2022/04/23 02:49:21;;;;;;;61.70;37.95;;;6.20;99.90;;;;;;4995865;28;20052;-85
2022/04/23 02:51:48;;;;;;;62.15;38.83;;;6.20;99.90;;;;;;5011835;28;20390;-84
2022/04/23 02:54:13;;;;;;;67.22;39.55;;;6.20;99.90;;;;;;4995798;28;20100;-85
2022/04/23 02:56:39;;;;;;;67.32;42.25;;;6.10;99.90;;;;;;4995627;28;20121;-85
2022/04/23 02:59:06;;;;;;;62.03;38.55;;;6.20;99.90;;;;;;4995380;28;20033;-84
2022/04/23 03:01:36;;;;;;;61.47;38.92;;;6.10;99.90;;;;;;5012135;28;20040;-85
2022/04/23 03:04:03;;;;;;;61.05;38.28;;;6.20;99.90;;;;;;4995566;28;20121;-85
2022/04/23 03:06:32;;;;;;;63.15;38.90;;;6.20;99.90;;;;;;5011715;28;20084;-85
2022/04/23 03:09:02;;;;;;;58.75;38.50;;;6.20;99.90;;;;;;4994604;28;20080;-85
2022/04/23 03:11:32;;;;;;;69.72;41.22;;;6.20;99.90;;;;;;5028351;28;20763;-85
2022/04/23 03:13:59;;;;;;;63.40;38.40;;;6.20;99.90;;;;;;5011650;28;20775;-85
2022/04/23 03:16:29;;;;;;;61.28;38.08;;;6.10;99.90;;;;;;5011823;28;20065;-85
2022/04/23 03:18:56;;;;;;;60.45;37.30;;;6.00;99.90;;;;;;5027681;28;20038;-85
2022/04/23 03:21:22;;;;;;;58.17;36.35;;;6.00;99.90;;;;;;4995664;28;20787;-85
2022/04/23 03:23:48;;;;;;;63.97;39.72;;;6.00;99.90;;;;;;5013162;28;20034;-84
2022/04/23 03:26:14;;;;;;;60.92;37.55;;;6.00;99.90;;;;;;4995165;28;20105;-84
2022/04/23 03:28:40;;;;;;;62.97;38.33;;;6.00;99.90;;;;;;5028063;28;20089;-85
2022/04/23 03:31:05;;;;;;;62.20;38.15;;;6.00;99.90;;;;;;5028498;28;20065;-85
2022/04/23 03:33:32;;;;;;;60.30;36.42;;;6.00;99.90;;;;;;4995107;28;20038;-85
2022/04/23 03:35:58;;;;;;;63.40;39.03;;;5.90;99.90;;;;;;4979135;28;20065;-84
2022/04/23 03:38:24;;;;;;;61.17;37.67;;;5.90;99.90;;;;;;5011612;28;20068;-85
2022/04/23 03:40:53;;;;;;;58.92;36.22;;;5.90;99.90;;;;;;4995079;28;20495;-85
2022/04/23 03:43:20;;;;;;;59.08;34.83;;;5.90;99.90;;;;;;4979209;28;20042;-84
2022/04/23 03:45:47;;;;;;;60.05;36.35;;;5.90;99.90;;;;;;4995192;28;20026;-84
2022/04/23 03:48:14;;;;;;;58.20;34.90;;;5.90;99.90;;;;;;5028109;28;20392;-84
2022/04/23 03:50:40;;;;;;;63.58;36.47;;;5.90;99.90;;;;;;4995096;28;20030;-85
2022/04/23 03:53:06;;;;;;;60.42;35.92;;;5.90;99.90;;;;;;5011553;28;20717;-85
2022/04/23 03:55:31;;;;;;;59.70;37.33;;;5.80;99.90;;;;;;5028026;28;20116;-85
2022/04/23 03:57:57;;;;;;;62.45;37.50;;;5.90;99.90;;;;;;4995180;28;20048;-85
2022/04/23 04:00:23;;;;;;;60.55;37.85;;;6.00;99.90;;;;;;4994460;28;20058;-85
2022/04/23 04:02:54;;;;;;;61.38;38.00;;;6.00;99.90;;;;;;5010288;28;20030;-85
2022/04/23 04:05:20;;;;;;;59.97;36.10;;;6.00;99.90;;;;;;5012404;28;20030;-85
2022/04/23 04:07:47;;;;;;;66.28;38.58;;;6.00;99.90;;;;;;4978496;28;20034;-85
2022/04/23 04:10:16;;;;;;;57.90;36.70;;;6.00;99.90;;;;;;5009297;28;20430;-85
2022/04/23 04:12:42;;;;;;;54.85;35.42;;;5.90;99.90;;;;;;5009040;28;20145;-85
2022/04/23 04:15:10;;;;;;;65.38;38.67;;;6.00;99.90;;;;;;4995196;28;20190;-85
2022/04/23 04:17:36;;;;;;;62.05;36.63;;;6.00;99.90;;;;;;5010600;28;20034;-84
2022/04/23 04:20:03;;;;;;;58.95;36.90;;;6.00;99.90;;;;;;4994716;28;20026;-83
2022/04/23 04:22:30;;;;;;;57.63;34.75;;;6.00;99.90;;;;;;5011053;28;20113;-83
2022/04/23 04:24:56;;;;;;;61.38;36.92;;;6.10;99.90;;;;;;4997690;28;20037;-83
2022/04/23 04:27:22;;;;;;;60.35;36.97;;;6.00;99.90;;;;;;5014485;28;20034;-82
2022/04/23 04:29:48;;;;;;;60.25;37.45;;;6.00;99.90;;;;;;5015824;28;20033;-83
2022/04/23 04:32:14;;;;;;;63.45;39.17;;;6.10;99.90;;;;;;4998172;28;20401;-82
2022/04/23 04:34:40;;;;;;;58.92;35.60;;;6.10;99.90;;;;;;5030504;28;20038;-82
2022/04/23 04:37:08;;;;;;;61.85;36.58;;;6.10;99.90;;;;;;5014100;28;20038;-82
2022/04/23 04:39:35;;;;;;;56.67;35.35;;;6.10;99.90;;;;;;5014223;28;20503;-83
2022/04/23 04:42:01;;;;;;;59.33;35.80;;;6.10;99.90;;;;;;5014555;28;20389;-83
2022/04/23 04:44:27;;;;;;;57.28;35.95;;;6.30;99.90;;;;;;5014640;28;20033;-83
2022/04/23 04:46:53;;;;;;;56.47;35.53;;;6.30;99.90;;;;;;4998691;28;20030;-83
2022/04/23 04:49:19;;;;;;;55.80;34.72;;;6.40;99.90;;;;;;5015861;28;20741;-82
2022/04/23 04:51:45;;;;;;;52.92;32.47;;;6.40;99.90;;;;;;4998495;28;20504;-83
2022/04/23 04:54:10;;;;;;;49.30;33.13;;;6.50;99.90;;;;;;5014380;28;20037;-83
2022/04/23 04:56:36;;;;;;;50.50;32.10;;;6.60;99.90;;;;;;4997935;28;20033;-83
2022/04/23 04:59:02;;;;;;;44.75;29.20;;;6.70;99.90;;;;;;4997576;28;20030;-83
2022/04/23 05:01:28;;;;;;;46.25;30.40;;;6.70;99.90;;;;;;5030348;28;20085;-83
2022/04/23 05:03:54;;;;;;;44.88;29.17;;;6.80;99.90;;;;;;5013652;28;20069;-83
2022/04/23 05:06:20;;;;;;;43.00;28.65;;;6.80;99.90;;;;;;4994891;28;20069;-82
2022/04/23 05:08:46;;;;;;;42.40;28.42;;;6.80;99.90;;;;;;4996370;28;20539;-82
2022/04/23 05:11:12;;;;;;;39.60;26.75;;;7.00;99.90;;;;;;4996831;28;20061;-82
2022/04/23 05:13:38;;;;;;;40.55;26.52;;;7.00;99.90;;;;;;5013807;28;20045;-83
2022/04/23 05:16:07;;;;;;;38.25;26.10;;;7.10;99.90;;;;;;4997775;28;20489;-82
2022/04/23 05:18:34;;;;;;;36.22;24.90;;;7.20;99.90;;;;;;5014153;28;20045;-82
2022/04/23 05:21:00;;;;;;;32.83;23.42;;;7.30;99.90;;;;;;5030413;28;20669;-83
2022/04/23 05:23:26;;;;;;;33.92;23.45;;;7.30;99.90;;;;;;4997745;28;20038;-83
2022/04/23 05:25:52;;;;;;;32.50;22.33;;;7.40;99.90;;;;;;4997857;28;20396;-83
2022/04/23 05:28:18;;;;;;;31.17;21.92;;;7.50;99.90;;;;;;4997650;28;20030;-83
2022/04/23 05:30:45;;;;;;;31.70;21.92;;;7.60;99.90;;;;;;4997793;28;20022;-83
2022/04/23 05:33:11;;;;;;;28.13;20.67;;;7.60;99.90;;;;;;5026132;28;20038;-83
2022/04/23 05:35:37;;;;;;;28.88;20.33;;;7.70;99.90;;;;;;4997044;28;20045;-82
2022/04/23 05:38:03;;;;;;;27.38;19.35;;;7.70;99.90;;;;;;5030435;28;20370;-83
2022/04/23 05:40:29;;;;;;;25.83;18.10;;;7.80;99.90;;;;;;4996467;28;20118;-83
2022/04/23 05:42:58;;;;;;;26.05;18.25;;;7.70;99.90;;;;;;4980297;28;20037;-83
2022/04/23 05:45:24;;;;;;;26.73;19.05;;;7.70;99.90;;;;;;5029935;28;20029;-82
2022/04/23 05:47:50;;;;;;;25.10;18.00;;;7.80;99.90;;;;;;5029820;28;20034;-83
2022/04/23 05:50:17;;;;;;;23.65;17.08;;;7.90;99.90;;;;;;4980647;28;20117;-83
2022/04/23 05:52:42;;;;;;;22.58;16.63;;;8.00;99.90;;;;;;4996853;28;20113;-82
2022/04/23 05:55:09;;;;;;;22.42;15.63;;;8.20;99.90;;;;;;4996723;28;20120;-83
2022/04/23 05:57:35;;;;;;;22.02;15.32;;;8.30;99.90;;;;;;4996713;28;20129;-83
2022/04/23 06:00:01;;;;;;;21.27;15.23;;;8.30;99.90;;;;;;5012019;28;20629;-83
2022/04/23 06:02:37;;;;;;;19.63;14.45;;;8.30;99.90;;;;;;5014320;28;20042;-83
2022/04/23 06:05:04;;;;;;;21.98;15.65;;;8.40;99.90;;;;;;4996619;28;20030;-83
2022/04/23 06:07:30;;;;;;;18.08;13.60;;;8.40;99.90;;;;;;5014072;28;20038;-83
2022/04/23 06:09:56;;;;;;;19.42;12.85;;;8.50;99.90;;;;;;4979657;28;20081;-83
2022/04/23 06:12:22;;;;;;;17.23;12.82;;;8.70;99.90;;;;;;4976470;28;20034;-83
2022/04/23 06:14:50;;;;;;;18.02;11.63;;;8.70;99.90;;;;;;4979685;28;20564;-83
2022/04/23 06:17:27;;;;;;;16.30;12.15;;;8.70;99.90;;;;;;4996116;28;20114;-83
2022/04/23 06:19:55;;;;;;;14.98;10.50;;;8.80;99.90;;;;;;5028184;28;20034;-83
2022/04/23 06:22:22;;;;;;;16.23;11.23;;;8.80;99.90;;;;;;5012575;28;20030;-83
2022/04/23 06:24:48;;;;;;;13.95;10.48;;;8.90;99.90;;;;;;4996006;28;20034;-82
2022/04/23 06:27:14;;;;;;;12.25;9.38;;;8.90;99.90;;;;;;4996191;28;20379;-82
2022/04/23 06:29:40;;;;;;;12.40;9.98;;;8.90;99.90;;;;;;4995372;28;20140;-82
2022/04/23 06:32:07;;;;;;;11.02;8.45;;;8.90;99.90;;;;;;4996231;28;20116;-82
2022/04/23 06:34:34;;;;;;;11.13;8.82;;;9.00;99.90;;;;;;5014083;28;20026;-83
2022/04/23 06:36:59;;;;;;;13.93;8.45;;;9.20;99.90;;;;;;5013985;28;20045;-83
2022/04/23 06:39:25;;;;;;;13.25;9.43;;;9.40;99.90;;;;;;5013550;28;20454;-82
2022/04/23 06:41:51;;;;;;;11.15;9.05;;;9.40;99.90;;;;;;5012426;28;20030;-84
2022/04/23 06:44:16;;;;;;;10.38;8.27;;;9.40;99.90;;;;;;4995873;28;20065;-83
2022/04/23 06:46:42;;;;;;;13.73;8.68;;;9.50;99.90;;;;;;4995047;28;20485;-83
2022/04/23 06:49:08;;;;;;;14.18;9.02;;;9.50;99.90;;;;;;5011451;28;20528;-83
2022/04/23 06:51:37;;;;;;;11.95;9.20;;;9.60;99.90;;;;;;4995704;28;20026;-83
2022/04/23 06:54:03;;;;;;;12.15;9.70;;;9.40;99.90;;;;;;4995258;28;20045;-83
2022/04/23 06:56:30;;;;;;;14.00;9.40;;;9.50;99.90;;;;;;4995771;28;20034;-83
2022/04/23 06:59:02;;;;;;;13.43;9.32;;;9.60;99.90;;;;;;4995760;28;20026;-83
2022/04/23 07:01:27;;;;;;;12.65;9.88;;;9.70;99.90;;;;;;4995408;28;20038;-83
2022/04/23 07:03:53;;;;;;;19.73;10.55;;;9.60;99.90;;;;;;4995519;28;20037;-84
2022/04/23 07:06:19;;;;;;;12.68;9.35;;;9.60;99.90;;;;;;4995936;28;20168;-83
2022/04/23 07:08:45;;;;;;;23.70;9.35;;;9.60;99.90;;;;;;4995289;28;20034;-83
2022/04/23 07:11:11;;;;;;;13.32;10.15;;;9.50;99.90;;;;;;4995587;28;20030;-83
2022/04/23 07:13:38;;;;;;;14.68;10.27;;;9.30;99.90;;;;;;4995185;28;20040;-83
2022/04/23 07:16:04;;;;;;;14.85;9.73;;;9.30;99.90;;;;;;5011628;28;20803;-83
2022/04/23 07:18:31;;;;;;;12.95;9.80;;;9.30;99.90;;;;;;4996010;28;20048;-83
2022/04/23 07:20:57;;;;;;;14.07;10.30;;;9.50;99.90;;;;;;4994999;28;20037;-83
2022/04/23 07:26:07;;;;;;;13.80;9.70;;;9.40;99.90;;;;;;5028089;28;20030;-83
2022/04/23 07:28:34;;;;;;;15.38;10.35;;;9.50;99.90;;;;;;4994824;28;20545;-83
2022/04/23 07:31:03;;;;;;;16.70;9.82;;;9.70;99.90;;;;;;5012742;28;20072;-83
2022/04/23 07:38:57;;;;;;;12.95;8.95;;;10.10;99.90;;;;;;5011457;28;20120;-83
2022/04/23 07:41:22;;;;;;;18.38;9.50;;;10.30;99.90;;;;;;4995499;28;20113;-83
2022/04/23 07:43:48;;;;;;;22.90;10.38;;;10.40;99.90;;;;;;5028033;28;20076;-82
2022/04/23 07:46:14;;;;;;;11.80;9.52;;;10.30;99.90;;;;;;4995056;28;20493;-83
2022/04/23 07:48:39;;;;;;;11.43;9.05;;;10.30;99.90;;;;;;4994954;28;20425;-83
2022/04/23 07:51:05;;;;;;;14.00;9.95;;;10.70;99.90;;;;;;4994744;28;20491;-83
2022/04/23 07:53:31;;;;;;;13.90;8.75;;;10.80;99.90;;;;;;4995293;28;20038;-83
2022/04/23 07:55:57;;;;;;;11.68;8.98;;;11.00;99.90;;;;;;5012917;28;20497;-83
2022/04/23 07:58:22;;;;;;;10.90;8.93;;;11.00;99.90;;;;;;4995751;28;20556;-84
2022/04/23 08:00:48;;;;;;;11.68;8.48;;;10.80;99.90;;;;;;4998438;28;20116;-83
2022/04/23 08:03:15;;;;;;;14.07;9.15;;;10.70;99.90;;;;;;4999229;28;20026;-83
2022/04/23 08:05:41;;;;;;;29.15;10.15;;;10.60;99.90;;;;;;4982740;28;20481;-83
2022/04/23 08:08:07;;;;;;;16.05;9.73;;;10.60;99.90;;;;;;4999480;28;20065;-83
2022/04/23 08:10:33;;;;;;;149.45;19.77;;;10.40;99.90;;;;;;4998798;28;20033;-83
2022/04/23 08:12:59;;;;;;;20.35;9.82;;;10.40;99.90;;;;;;4999078;28;20458;-83
2022/04/23 08:15:26;;;;;;;28.20;10.95;;;10.40;99.90;;;;;;4998802;28;20436;-83
2022/04/23 08:17:55;;;;;;;18.17;9.18;;;10.60;99.90;;;;;;5015614;28;20030;-83
2022/04/23 08:20:21;;;;;;;52.47;11.48;;;10.90;99.90;;;;;;4998331;28;20732;-83
2022/04/23 08:22:47;;;;;;;136.05;17.63;;;11.00;99.90;;;;;;4998071;28;20132;-83
2022/04/23 08:25:12;;;;;;;162.00;16.40;;;10.90;99.90;;;;;;5014916;28;20062;-84
2022/04/23 08:27:49;;;;;;;25.45;9.80;;;11.00;99.90;;;;;;4998619;28;20033;-84
2022/04/23 08:32:59;;;;;;;11.98;8.73;;;11.40;99.90;;;;;;5015922;28;20057;-83
2022/04/23 08:35:24;;;;;;;13.05;8.32;;;11.60;99.90;;;;;;4998207;28;20033;-82
2022/04/23 08:37:50;;;;;;;24.63;16.45;;;11.60;99.90;;;;;;4998021;28;20041;-82
2022/04/23 08:40:16;;;;;;;27.65;9.77;;;11.70;99.90;;;;;;4998633;28;20041;-82
2022/04/23 08:42:48;;;;;;;10.52;8.43;;;11.50;99.90;;;;;;4998264;28;20097;-83
2022/04/23 08:45:13;;;;;;;19.52;9.35;;;11.60;99.90;;;;;;4998627;28;20033;-83
2022/04/23 08:47:45;;;;;;;40.67;11.32;;;11.70;99.90;;;;;;4998307;28;20034;-83
2022/04/23 08:50:12;;;;;;;20.13;9.02;;;11.80;99.90;;;;;;4981754;28;20037;-83
2022/04/23 08:52:42;;;;;;;14.02;9.25;;;12.00;99.90;;;;;;4998198;28;20084;-83
2022/04/23 08:55:09;;;;;;;12.07;8.80;;;12.00;99.90;;;;;;4998095;28;20133;-83
2022/04/23 08:57:38;;;;;;;10.95;8.65;;;11.80;99.90;;;;;;5014508;28;20044;-83
2022/04/23 09:00:08;;;;;;;10.65;8.73;;;11.70;99.90;;;;;;4997721;28;20038;-83
2022/04/23 09:02:35;;;;;;;10.85;8.65;;;11.60;99.90;;;;;;5013917;28;20026;-83
2022/04/23 09:05:01;;;;;;;11.38;8.90;;;11.50;99.90;;;;;;4997834;28;20022;-83
2022/04/23 09:07:29;;;;;;;10.43;8.02;;;11.70;99.90;;;;;;4997621;28;20030;-84
2022/04/23 09:09:58;;;;;;;10.68;8.05;;;11.80;99.90;;;;;;4996712;28;20034;-83
2022/04/23 09:12:26;;;;;;;9.52;7.85;;;11.70;99.90;;;;;;4997425;28;20034;-83
2022/04/23 09:24:15;;;;;;;10.95;8.60;;;11.70;99.90;;;;;;5015471;28;20044;-83
2022/04/23 09:26:41;;;;;;;11.75;7.60;;;11.80;99.90;;;;;;5013503;28;20034;-84
2022/04/23 09:29:15;;;;;;;10.35;8.38;;;11.80;99.90;;;;;;4996590;28;20084;-83
2022/04/23 09:31:42;;;;;;;15.80;8.65;;;11.50;99.90;;;;;;5013900;28;20064;-83
2022/04/23 09:34:16;;;;;;;10.50;8.20;;;11.30;99.90;;;;;;4997695;28;20137;-83
2022/04/23 09:36:49;;;;;;;11.02;8.57;;;11.40;99.90;;;;;;4997554;28;20030;-83
2022/04/23 09:39:15;;;;;;;14.90;9.10;;;11.40;99.90;;;;;;4997374;28;20061;-83
2022/04/23 09:41:41;;;;;;;11.73;8.23;;;11.60;99.90;;;;;;4997384;28;20105;-83
2022/04/23 09:44:09;;;;;;;11.25;8.73;;;12.00;99.90;;;;;;4997094;28;20034;-83
2022/04/23 09:46:46;;;;;;;10.90;8.60;;;12.10;99.90;;;;;;4996984;28;20080;-83
2022/04/23 09:49:15;;;;;;;10.85;8.52;;;12.00;99.90;;;;;;4995969;28;20030;-82
2022/04/23 09:52:04;;;;;;;9.82;8.45;;;12.00;99.90;;;;;;4997547;28;20389;-83
2022/04/23 09:54:31;;;;;;;14.15;8.38;;;11.90;99.90;;;;;;4997652;28;20049;-83
2022/04/23 09:56:57;;;;;;;11.02;8.50;;;12.00;99.90;;;;;;4997404;28;20125;-82
2022/04/23 09:59:23;;;;;;;11.95;8.75;;;12.00;99.90;;;;;;4996972;28;20482;-83
2022/04/23 10:01:50;;;;;;;11.68;8.23;;;12.10;99.90;;;;;;4996829;28;20084;-83
2022/04/23 10:04:27;;;;;;;11.68;9.00;;;11.80;99.90;;;;;;4996811;28;20022;-83
2022/04/23 10:06:56;;;;;;;10.82;8.52;;;11.60;99.90;;;;;;5029639;28;20073;-83
2022/04/23 10:09:27;;;;;;;11.73;8.77;;;11.90;99.90;;;;;;4996396;28;20164;-83
2022/04/23 10:12:08;;;;;;;11.18;9.02;;;11.90;99.90;;;;;;4996615;28;20544;-83
2022/04/23 10:14:40;;;;;;;11.38;9.00;;;11.90;99.90;;;;;;4997117;28;20026;-83
2022/04/23 10:17:27;;;;;;;12.63;9.65;;;12.20;99.90;;;;;;4996611;28;20081;-83
2022/04/23 10:19:54;;;;;;;15.95;11.02;;;12.70;99.90;;;;;;4996532;28;20029;-84
2022/04/23 10:22:25;;;;;;;12.80;9.38;;;13.20;99.90;;;;;;5028038;28;20084;-83
2022/04/23 10:24:56;;;;;;;11.33;9.10;;;13.50;99.90;;;;;;5013765;28;20034;-83
2022/04/23 10:27:25;;;;;;;;;;;13.70;99.90;;;;;;4996734;28;20042;-83
2022/04/23 10:30:06;;;;;;;11.65;8.10;;;13.50;99.90;;;;;;4995493;28;20000;-83
2022/04/23 10:32:41;;;;;;;11.40;8.60;;;13.30;99.90;;;;;;4995916;28;20037;-83
2022/04/23 10:35:19;;;;;;;9.82;7.95;;;12.80;99.90;;;;;;4996136;28;20473;-83
2022/04/23 10:37:49;;;;;;;13.02;7.95;;;13.10;99.90;;;;;;5028852;28;20029;-83
2022/04/23 10:40:20;;;;;;;9.75;8.10;;;13.30;99.90;;;;;;4995569;28;20096;-83
2022/04/23 10:43:04;;;;;;;10.75;8.27;;;13.50;99.90;;;;;;4995834;28;20034;-83
2022/04/23 10:46:16;;;;;;;11.68;8.18;;;13.20;99.90;;;;;;5012128;28;20544;-83
2022/04/23 10:48:45;;;;;;;15.43;8.48;;;12.90;99.90;;;;;;5011910;28;20481;-83
2022/04/23 10:51:16;;;;;;;12.55;8.63;;;13.10;99.90;;;;;;4995558;28;20137;-83
2022/04/23 10:53:42;;;;;;;11.07;8.30;;;13.10;99.90;;;;;;4995494;28;20531;-83
2022/04/23 10:56:11;;;;;;;10.63;8.50;;;13.10;99.90;;;;;;5027855;28;20120;-83
2022/04/23 10:58:43;;;;;;;14.07;8.75;;;13.30;99.90;;;;;;4995670;28;20465;-83
2022/04/23 11:01:20;;;;;;;;;;;13.40;99.90;;;;;;4995597;28;20038;-83
2022/04/23 11:04:10;;;;;;;11.77;8.55;;;13.50;99.90;;;;;;5012140;28;20088;-81
2022/04/23 11:12:37;;;;;;;10.48;8.48;;;14.00;99.90;;;;;;5012045;28;20402;-83
2022/04/23 11:15:14;;;;;;;11.50;8.27;;;14.10;99.90;;;;;;4995577;28;20037;-83
2022/04/23 11:17:40;;;;;;;10.90;8.45;;;13.90;99.90;;;;;;4995414;28;20822;-83
2022/04/23 11:20:06;;;;;;;13.82;8.88;;;13.70;99.90;;;;;;5028021;28;20043;-83
2022/04/23 11:22:32;;;;;;;12.07;8.82;;;13.50;99.90;;;;;;4995695;28;20507;-83
2022/04/23 11:24:59;;;;;;;12.18;8.20;;;13.40;99.90;;;;;;4995641;28;20030;-83
2022/04/23 11:27:29;;;;;;;13.38;8.90;;;13.70;99.90;;;;;;4995047;28;20598;-83
2022/04/23 11:29:55;;;;;;;11.63;8.95;;;13.60;99.90;;;;;;4995236;28;20049;-83
2022/04/23 11:32:33;;;;;;;13.35;9.32;;;13.70;99.90;;;;;;4994520;28;20065;-83
2022/04/23 11:35:00;;;;;;;12.73;10.32;;;13.50;99.90;;;;;;4995064;28;20132;-83
2022/04/23 11:37:33;;;;;;;15.98;9.32;;;13.60;99.90;;;;;;4995044;28;20240;-83
2022/04/23 11:40:12;;;;;;;13.25;9.88;;;13.90;99.90;;;;;;5011230;28;20041;-84
2022/04/23 11:42:43;;;;;;;16.75;10.20;;;13.50;99.90;;;;;;4994796;28;20034;-83
2022/04/23 11:45:11;;;;;;;12.57;9.10;;;13.30;99.90;;;;;;4995010;28;20026;-84
2022/04/23 11:47:37;;;;;;;12.25;8.73;;;13.50;99.90;;;;;;4994483;28;20490;-83
2022/04/23 11:50:13;;;;;;;11.80;9.05;;;13.50;99.90;;;;;;4994291;28;20026;-83
2022/04/23 11:52:41;;;;;;;15.02;8.73;;;13.70;99.90;;;;;;4995021;28;20421;-83
2022/04/23 11:55:11;;;;;;;13.02;10.02;;;13.70;99.90;;;;;;4994912;28;20053;-83
2022/04/23 11:57:36;;;;;;;14.50;10.02;;;13.40;99.90;;;;;;5011302;28;20030;-84
2022/04/23 12:00:04;;;;;;;14.93;10.27;;;13.40;99.90;;;;;;5010991;28;20089;-83
2022/04/23 12:02:31;;;;;;;14.70;9.73;;;13.40;99.90;;;;;;5027679;28;20030;-83
2022/04/23 12:04:58;;;;;;;14.95;9.30;;;13.50;99.90;;;;;;4994657;28;20081;-84
2022/04/23 12:07:26;;;;;;;11.80;9.23;;;13.70;99.90;;;;;;4994306;28;20030;-84
2022/04/23 12:09:59;;;;;;;12.70;10.10;;;13.70;99.90;;;;;;4994526;28;20127;-83
2022/04/23 12:12:32;;;;;;;14.35;9.85;;;14.00;99.90;;;;;;5011210;28;20037;-83
2022/04/23 12:15:09;;;;;;;13.68;10.23;;;14.10;99.90;;;;;;4995236;28;20032;-83
2022/04/23 12:17:45;;;;;;;13.48;9.73;;;13.60;99.90;;;;;;5011320;28;20062;-83
2022/04/23 12:20:13;;;;;;;16.48;11.20;;;13.50;99.90;;;;;;5012449;28;20584;-83
2022/04/23 12:22:39;;;;;;;12.80;9.77;;;13.30;99.90;;;;;;5011124;28;20037;-83
2022/04/23 12:25:16;;;;;;;14.93;11.13;;;13.50;99.90;;;;;;4994801;28;20739;-84
2022/04/23 12:28:01;;;;;;;16.27;10.25;;;13.60;99.90;;;;;;4978964;28;20389;-83
2022/04/23 12:42:00;;;;;;;12.75;9.80;;;13.10;99.90;;;;;;5010891;28;20037;-83
2022/04/23 12:44:43;;;;;;;14.77;9.93;;;13.10;99.90;;;;;;4995693;28;20030;-83
2022/04/23 12:47:13;;;;;;;15.02;11.07;;;13.00;99.90;;;;;;4998505;28;20038;-83
2022/04/23 12:49:56;;;;;;;14.48;10.57;;;12.90;99.90;;;;;;5014430;28;20385;-83
2022/04/23 12:52:23;;;;;;;18.48;11.20;;;12.80;99.90;;;;;;4998157;28;20033;-83
2022/04/23 12:55:13;;;;;;;21.13;11.55;;;12.60;99.90;;;;;;5014346;28;20037;-83
2022/04/23 12:58:16;;;;;;;17.52;11.63;;;12.60;99.90;;;;;;5014662;28;20486;-83
2022/04/23 13:00:41;;;;;;;17.92;12.63;;;12.70;99.90;;;;;;4997443;28;20034;-83
2022/04/23 13:05:56;;;;;;;20.42;14.93;;;13.30;99.90;;;;;;5030280;28;20034;-84
2022/04/23 13:11:25;;;;;;;18.35;13.18;;;13.40;99.90;;;;;;5014354;28;20036;-83
2022/04/23 13:13:54;;;;;;;22.45;14.10;;;13.70;99.90;;;;;;5014225;28;20026;-84
2022/04/23 13:16:32;;;;;;;27.85;15.18;;;14.20;99.90;;;;;;4981921;28;20504;-84
2022/04/23 13:19:14;;;;;;;28.08;17.23;;;14.50;99.90;;;;;;5014343;28;20092;-84
2022/04/23 13:21:40;;;;;;;24.00;16.35;;;14.80;99.90;;;;;;4997991;28;20092;-84
2022/04/23 13:24:06;;;;;;;25.17;17.98;;;14.80;99.90;;;;;;4997970;28;20038;-83
2022/04/23 13:26:32;;;;;;;25.27;18.33;;;14.40;99.90;;;;;;4998200;28;20032;-84
2022/04/23 13:28:58;;;;;;;26.33;18.50;;;14.40;99.90;;;;;;5030622;28;20060;-83